Time;durP1;ratioP1;P1;durP2;ratioP2;P2;SDS_P1;SDS_P2;PMS_P1;PMS_P2;Temp;Humidity;BMP_temperature;BMP_pressure;BME280_temperature;BME280_humidity;BME280_pressure;Samples;Min_cycle;Max_cycle;Signal;HPM_P1;HPM_P2
2022/01/26 00:07:22;;;;;;;2.00;1.90;;;5.20;99.90;5.90;103197.00;;;;5112310;28;20731;-66
2022/01/26 00:09:47;;;;;;;3.77;3.47;;;5.40;99.90;4.20;103180.00;;;;5113887;28;20268;-66
2022/01/26 00:12:18;;;;;;;2.03;1.97;;;4.90;99.90;3.70;103174.00;;;;5103875;28;20204;-66
2022/01/26 00:15:05;;;;;;;7.07;6.03;;;4.30;99.90;4.50;103173.00;;;;5101461;28;20209;-66
2022/01/26 00:17:33;;;;;;;0.33;0.33;;;4.40;99.90;4.80;103184.00;;;;5114554;27;20176;-66
2022/01/26 00:20:22;;;;;;;2.87;2.63;;;4.60;99.90;3.70;103183.00;;;;5111881;28;20178;-66
2022/01/26 00:27:55;;;;;;;1.47;1.37;;;4.20;99.90;4.10;103152.00;;;;5113916;28;20188;-66
2022/01/26 00:41:08;;;;;;;0.30;0.30;;;4.80;99.90;5.00;103177.00;;;;5092407;28;20190;-66
2022/01/26 00:43:36;;;;;;;4.43;4.10;;;5.00;99.90;4.90;103176.00;;;;5111026;28;20184;-67
2022/01/26 00:46:08;;;;;;;0.60;0.60;;;4.80;99.90;4.90;103183.00;;;;5113831;28;20268;-67
2022/01/26 00:48:37;;;;;;;0.30;0.30;;;4.70;99.90;4.90;103178.00;;;;5113698;28;20613;-66
2022/01/26 00:51:05;;;;;;;0.70;0.70;;;4.80;99.90;4.80;103174.00;;;;5113301;28;20188;-66
2022/01/26 00:53:36;;;;;;;1.17;1.17;;;4.70;99.90;4.50;103182.00;;;;5113236;28;20185;-66
2022/01/26 00:56:04;;;;;;;0.87;0.87;;;4.60;99.90;4.40;103184.00;;;;5112132;28;20184;-67
2022/01/26 00:58:31;;;;;;;1.43;1.20;;;4.60;99.90;4.40;103168.00;;;;5111711;28;20265;-66
2022/01/26 01:01:00;;;;;;;1.60;1.50;;;4.50;99.90;4.40;103166.00;;;;5093252;28;20277;-66
2022/01/26 01:03:32;;;;;;;3.10;1.20;;;4.40;99.90;4.10;103133.00;;;;5111021;28;20206;-66
2022/01/26 01:06:11;;;;;;;0.40;0.40;;;4.30;99.90;4.40;103144.00;;;;5097940;28;20236;-67
2022/01/26 01:08:44;;;;;;;0.30;0.30;;;4.40;99.90;4.40;103160.00;;;;5093869;28;20191;-67
2022/01/26 01:11:10;;;;;;;0.77;0.77;;;4.40;99.90;4.30;103153.00;;;;5102731;28;20215;-66
2022/01/26 01:13:42;;;;;;;2.50;2.30;;;4.40;99.90;4.10;103156.00;;;;5114083;28;20176;-67
2022/01/26 01:16:12;;;;;;;9.20;2.73;;;4.30;99.90;4.00;103100.00;;;;5110715;28;20210;-66
2022/01/26 01:18:48;;;;;;;12.50;6.13;;;4.20;99.90;4.70;103139.00;;;;5091966;28;20184;-66
2022/01/26 01:27:04;;;;;;;2.70;2.50;;;4.20;99.90;3.70;103094.00;;;;5113493;28;20683;-67
2022/01/26 01:29:44;;;;;;;1.70;1.63;;;4.10;99.90;3.70;103121.00;;;;5113656;28;20189;-66
2022/01/26 01:32:27;;;;;;;1.17;1.17;;;4.00;99.90;3.70;103111.00;;;;5111834;28;20223;-66
2022/01/26 01:34:53;;;;;;;2.63;2.53;;;4.00;99.90;3.60;103111.00;;;;5111695;28;20219;-66
2022/01/26 01:37:19;;;;;;;2.03;1.93;;;3.90;99.90;4.00;103112.00;;;;5094713;28;20627;-67
2022/01/26 01:39:44;;;;;;;2.40;2.23;;;4.10;99.90;4.40;103119.00;;;;5099709;28;20209;-66
2022/01/26 01:42:13;;;;;;;1.80;1.57;;;4.20;99.90;4.40;103126.00;;;;5098106;28;20198;-67
2022/01/26 01:44:39;;;;;;;0.87;0.87;;;4.30;99.90;3.90;103118.00;;;;5112493;28;20180;-67
2022/01/26 01:47:07;;;;;;;2.60;2.50;;;4.30;99.90;3.50;103105.00;;;;5095093;28;20198;-67
2022/01/26 01:49:33;;;;;;;2.07;1.97;;;4.10;99.90;3.70;103110.00;;;;5111452;28;20242;-67
2022/01/26 01:52:02;;;;;;;1.63;1.53;;;3.90;99.90;3.70;103091.00;;;;5110681;28;20211;-66
2022/01/26 01:54:29;;;;;;;1.30;1.27;;;3.90;99.90;3.70;103125.00;;;;5093839;28;20195;-65
2022/01/26 01:56:58;;;;;;;1.03;1.03;;;3.90;99.90;4.00;103121.00;;;;5097750;28;20611;-66
2022/01/26 01:59:34;;;;;;;5.13;4.73;;;4.00;99.90;3.70;103122.00;;;;5100447;28;20185;-67
2022/01/26 02:02:00;;;;;;;5.13;1.17;;;4.00;99.90;3.50;103118.00;;;;5107180;28;20647;-66
2022/01/26 02:04:26;;;;;;;10.70;3.43;;;3.90;99.90;3.90;103123.00;;;;5094673;28;20221;-66
2022/01/26 02:06:52;;;;;;;2.30;1.90;;;4.00;99.90;3.80;103116.00;;;;5096994;28;20300;-67
2022/01/26 02:09:18;;;;;;;4.00;3.70;;;4.00;99.90;3.70;103113.00;;;;5092726;28;20750;-66
2022/01/26 02:11:50;;;;;;;5.10;4.80;;;4.00;99.90;3.30;103104.00;;;;5110689;28;20534;-66
2022/01/26 02:14:31;;;;;;;4.67;4.23;;;3.80;99.90;3.50;103084.00;;;;5101031;28;20222;-67
2022/01/26 02:49:54;;;;;;;3.07;2.77;;;4.70;99.90;3.90;103047.00;;;;5111663;28;20167;-65
2022/01/26 02:53:00;;;;;;;1.07;1.07;;;4.40;99.90;4.00;103004.00;;;;5110925;28;20202;-65
2022/01/26 03:00:30;;;;;;;5.50;2.20;;;4.20;99.90;4.30;103049.00;;;;5091393;28;20193;-66
2022/01/26 03:03:08;;;;;;;12.70;7.23;;;4.40;99.90;4.10;103053.00;;;;5109754;28;20215;-66
2022/01/26 03:05:42;;;;;;;9.13;3.80;;;4.40;99.90;3.70;103055.00;;;;5095625;28;20224;-65
2022/01/26 03:08:08;;;;;;;2.13;2.03;;;4.20;99.90;4.40;103063.00;;;;5101723;28;20185;-66
2022/01/26 03:10:50;;;;;;;1.90;1.83;;;4.40;99.90;4.50;103047.00;;;;5108378;28;20537;-65
2022/01/26 03:13:21;;;;;;;10.83;5.47;;;4.40;99.90;4.20;102997.00;;;;5108917;28;20208;-67
2022/01/26 03:15:53;;;;;;;2.63;2.00;;;4.40;99.90;4.30;103060.00;;;;5098389;28;20182;-66
2022/01/26 03:21:13;;;;;;;11.23;7.13;;;4.10;99.90;2.90;103047.00;;;;5051702;28;20276;-66
2022/01/26 03:34:18;;;;;;;7.20;3.90;;;3.50;99.90;3.50;103057.00;;;;5113151;28;20196;-67
2022/01/26 03:39:22;;;;;;;3.97;3.67;;;3.80;99.90;3.10;103068.00;;;;5103208;28;20195;-65
2022/01/26 03:41:54;;;;;;;2.00;1.90;;;3.80;99.90;3.10;103021.00;;;;5113923;28;20194;-66
2022/01/26 03:44:20;;;;;;;5.80;5.37;;;3.60;99.90;4.10;103073.00;;;;5111148;28;20221;-66
2022/01/26 03:46:48;;;;;;;3.63;2.17;;;3.90;99.90;3.60;103064.00;;;;5100509;28;20185;-66
2022/01/26 03:49:15;;;;;;;3.63;3.10;;;3.90;99.90;4.10;103062.00;;;;5105173;28;20184;-67
2022/01/26 03:51:41;;;;;;;6.17;5.80;;;4.10;99.90;3.50;103051.00;;;;5108800;28;20211;-66
2022/01/26 03:54:09;;;;;;;7.37;4.67;;;3.80;99.90;3.20;103056.00;;;;5096813;28;20196;-66
2022/01/26 03:56:35;;;;;;;2.60;2.00;;;3.70;99.90;3.50;103065.00;;;;5099380;28;20180;-66
2022/01/26 03:59:02;;;;;;;0.53;0.53;;;3.80;99.90;4.00;103072.00;;;;5114186;28;20184;-66
2022/01/26 04:01:28;;;;;;;0.93;0.93;;;3.90;99.90;3.20;103059.00;;;;5111973;28;20215;-66
2022/01/26 04:03:54;;;;;;;3.87;2.53;;;3.80;99.90;4.10;103066.00;;;;5104715;28;20555;-66
2022/01/26 04:06:20;;;;;;;1.43;1.43;;;3.90;99.90;4.40;103062.00;;;;5093774;28;20191;-66
2022/01/26 04:08:49;;;;;;;1.07;1.07;;;4.20;99.90;4.40;103070.00;;;;5093954;28;20180;-66
2022/01/26 04:13:46;;;;;;;1.90;1.73;;;4.40;99.90;3.90;103066.00;;;;5111527;28;20196;-66
2022/01/26 04:16:12;;;;;;;0.60;0.60;;;4.10;99.90;4.20;103062.00;;;;5114011;28;20537;-66
2022/01/26 04:19:08;;;;;;;11.33;5.80;;;4.20;99.90;3.80;103065.00;;;;5095597;28;20191;-66
2022/01/26 04:29:29;;;;;;;3.57;3.37;;;3.60;99.90;2.70;103080.00;;;;5113622;28;20191;-65
2022/01/26 04:31:57;;;;;;;15.13;10.27;;;3.30;99.90;3.20;103085.00;;;;5110386;28;20291;-65
2022/01/26 04:34:29;;;;;;;3.50;2.60;;;3.40;99.90;3.30;103090.00;;;;5099192;28;20184;-65
2022/01/26 04:39:27;;;;;;;4.27;3.97;;;3.60;99.90;3.30;103090.00;;;;5112347;28;20191;-66
2022/01/26 04:41:58;;;;;;;2.53;2.43;;;3.60;99.90;3.50;103096.00;;;;5113735;28;20243;-66
2022/01/26 04:44:29;;;;;;;1.30;0.97;;;3.60;99.90;4.00;103107.00;;;;5113219;28;20209;-66
2022/01/26 04:46:55;;;;;;;1.07;1.07;;;3.80;99.90;4.30;103103.00;;;;5113852;28;20185;-65
2022/01/26 04:49:21;;;;;;;2.13;2.03;;;4.10;99.90;4.80;103106.00;;;;5098514;27;20631;-66
2022/01/26 04:51:51;;;;;;;2.47;2.27;;;4.40;99.90;3.30;103094.00;;;;5092833;28;20263;-65
2022/01/26 04:54:17;;;;;;;1.40;1.40;;;4.00;99.90;3.10;103095.00;;;;5106069;28;20206;-65
2022/01/26 04:56:43;;;;;;;8.30;6.03;;;3.60;99.90;3.30;103094.00;;;;5112625;28;20682;-65
2022/01/26 04:59:09;;;;;;;11.20;10.10;;;3.70;99.90;3.20;103102.00;;;;5111212;28;20234;-65
2022/01/26 05:01:35;;;;;;;3.47;3.27;;;3.50;99.90;2.90;103119.00;;;;5112589;28;20184;-66
2022/01/26 05:04:00;;;;;;;2.73;2.63;;;3.40;99.90;3.30;103126.00;;;;5099872;28;20192;-65
2022/01/26 05:06:26;;;;;;;2.43;1.43;;;3.50;99.90;3.40;103131.00;;;;5095870;28;20588;-65
2022/01/26 05:08:52;;;;;;;39.63;19.67;;;3.60;99.90;3.10;103114.00;;;;5113425;28;20220;-65
2022/01/26 05:11:34;;;;;;;42.77;22.57;;;3.50;99.90;3.20;103127.00;;;;5091878;28;20200;-65
2022/01/26 05:14:00;;;;;;;11.53;6.17;;;3.50;99.90;3.20;103124.00;;;;5093982;28;20268;-65
2022/01/26 05:16:27;;;;;;;26.43;13.23;;;3.60;99.90;2.80;103141.00;;;;5094376;28;20173;-65
2022/01/26 05:18:54;;;;;;;1.70;1.67;;;3.40;99.90;3.40;103110.00;;;;5093896;28;20235;-65
2022/01/26 05:21:21;;;;;;;2.80;2.57;;;3.60;99.90;3.70;103101.00;;;;5094232;28;20180;-66
2022/01/26 05:23:47;;;;;;;2.40;2.03;;;3.60;99.90;3.30;103106.00;;;;5110141;28;20200;-65
2022/01/26 05:26:12;;;;;;;2.30;2.20;;;3.60;99.90;4.20;103095.00;;;;5114198;28;20522;-66
2022/01/26 05:28:39;;;;;;;8.27;4.93;;;3.90;99.90;4.10;103084.00;;;;5112524;28;20661;-66
2022/01/26 05:31:05;;;;;;;1.50;1.50;;;4.00;99.90;3.50;103070.00;;;;5113797;28;20185;-66
2022/01/26 05:33:31;;;;;;;1.57;1.17;;;3.90;99.90;3.40;103078.00;;;;5111980;28;20646;-66
2022/01/26 05:35:57;;;;;;;3.30;2.37;;;3.80;99.90;3.50;103093.00;;;;5111716;28;20229;-65
2022/01/26 05:38:23;;;;;;;0.73;0.73;;;3.70;99.90;4.20;103101.00;;;;5111582;28;20176;-66
2022/01/26 05:40:50;;;;;;;0.37;0.37;;;4.00;99.90;3.90;103096.00;;;;5107189;28;20186;-66
2022/01/26 05:43:17;;;;;;;0.30;0.30;;;4.00;99.90;3.90;103084.00;;;;5097580;28;20685;-66
2022/01/26 05:45:48;;;;;;;0.30;0.30;;;4.00;99.90;4.20;103098.00;;;;5111052;28;20192;-66
2022/01/26 05:48:19;;;;;;;1.73;1.70;;;4.00;99.90;4.60;103105.00;;;;5097630;28;20185;-66
2022/01/26 05:50:55;;;;;;;1.77;1.77;;;4.20;99.90;4.10;103090.00;;;;5107033;28;20262;-65
2022/01/26 05:53:22;;;;;;;0.60;0.60;;;4.40;99.90;3.80;103086.00;;;;5101035;28;20208;-65
2022/01/26 05:55:50;;;;;;;8.90;3.37;;;4.00;99.90;3.30;103089.00;;;;5106673;28;20178;-65
2022/01/26 05:58:16;;;;;;;0.33;0.33;;;3.80;99.90;3.90;103071.00;;;;5075177;28;20269;-65
2022/01/26 06:00:43;;;;;;;0.40;0.40;;;3.90;99.90;4.30;103055.00;;;;5097368;28;20312;-65
2022/01/26 06:03:11;;;;;;;1.20;1.17;;;4.00;99.90;3.80;103086.00;;;;5110201;28;20284;-65
2022/01/26 06:05:37;;;;;;;2.37;0.70;;;4.00;99.90;3.80;103059.00;;;;5111787;28;20201;-65
2022/01/26 06:08:06;;;;;;;1.33;1.23;;;3.90;99.90;4.30;103064.00;;;;5100029;28;20270;-65
2022/01/26 06:10:32;;;;;;;11.23;7.60;;;4.10;99.90;4.20;103079.00;;;;5106844;28;20545;-65
2022/01/26 06:12:58;;;;;;;0.40;0.40;;;4.30;99.90;3.90;103076.00;;;;5110126;28;20197;-65
2022/01/26 06:15:24;;;;;;;4.83;2.27;;;4.10;99.90;4.10;103075.00;;;;5093716;28;20265;-65
2022/01/26 06:17:50;;;;;;;0.83;0.83;;;4.10;99.90;4.50;103075.00;;;;5101908;28;20304;-65
2022/01/26 06:20:19;;;;;;;2.97;2.77;;;4.30;99.90;3.70;103057.00;;;;5112137;28;20695;-65
2022/01/26 06:22:47;;;;;;;0.30;0.30;;;4.20;99.90;3.80;103063.00;;;;5111196;28;20231;-65
2022/01/26 06:25:15;;;;;;;1.07;1.07;;;4.00;99.90;4.30;103044.00;;;;5113499;28;20208;-65
2022/01/26 06:27:44;;;;;;;5.03;4.73;;;4.20;99.90;4.00;103017.00;;;;5101322;28;20189;-65
2022/01/26 06:30:13;;;;;;;0.30;0.30;;;4.20;99.90;4.40;103062.00;;;;5092182;28;20165;-64
2022/01/26 06:32:39;;;;;;;2.30;2.20;;;4.20;99.90;4.10;103073.00;;;;5101481;28;20319;-64
2022/01/26 06:35:11;;;;;;;0.40;0.40;;;4.20;99.90;4.30;103075.00;;;;5090764;28;20192;-64
2022/01/26 06:37:37;;;;;;;5.43;4.03;;;4.20;99.90;3.60;103068.00;;;;5091321;28;20672;-64
2022/01/26 06:40:04;;;;;;;9.60;6.80;;;4.10;99.90;3.70;103069.00;;;;5099240;28;20255;-65
2022/01/26 06:42:37;;;;;;;5.07;4.63;;;3.90;99.90;3.40;103080.00;;;;5111783;28;20176;-65
2022/01/26 06:45:14;;;;;;;1.23;1.23;;;3.80;99.90;3.60;103076.00;;;;5094409;28;20694;-65
2022/01/26 06:48:00;;;;;;;0.60;0.60;;;3.80;99.90;3.10;103054.00;;;;5092744;28;20260;-65
2022/01/26 06:50:26;;;;;;;4.67;4.37;;;3.60;99.90;3.50;103111.00;;;;5102382;28;20214;-66
2022/01/26 06:52:52;;;;;;;9.67;8.03;;;3.80;99.90;3.70;103074.00;;;;5112240;28;20212;-65
2022/01/26 06:55:19;;;;;;;4.37;4.07;;;3.80;99.90;3.30;103111.00;;;;5114650;28;20223;-65
2022/01/26 06:57:48;;;;;;;1.10;1.10;;;3.70;99.90;3.70;103109.00;;;;5115548;28;20631;-66
2022/01/26 07:00:15;;;;;;;3.03;2.93;;;3.90;99.90;3.30;103101.00;;;;5096940;28;20288;-65
2022/01/26 07:02:41;;;;;;;8.47;4.00;;;3.80;99.90;3.60;103045.00;;;;5095043;28;20612;-65
2022/01/26 07:05:12;;;;;;;15.23;10.33;;;3.80;99.90;4.00;103105.00;;;;5109619;28;20212;-65
2022/01/26 07:07:39;;;;;;;11.23;6.13;;;3.90;99.90;3.30;103096.00;;;;5095129;28;20181;-66
2022/01/26 07:10:06;;;;;;;0.30;0.30;;;3.80;99.90;3.20;103091.00;;;;5107470;28;20176;-66
2022/01/26 07:12:33;;;;;;;5.80;5.43;;;3.60;99.90;3.40;103053.00;;;;5105320;28;20228;-66
2022/01/26 07:23:06;;;;;;;9.03;1.27;;;3.70;99.90;3.10;103077.00;;;;5098046;28;20197;-66
2022/01/26 07:25:36;;;;;;;0.43;0.43;;;3.70;99.90;3.40;103101.00;;;;5105933;28;20180;-66
2022/01/26 07:28:08;;;;;;;4.30;4.00;;;3.60;99.90;3.20;103097.00;;;;5112611;28;20522;-66
2022/01/26 07:30:35;;;;;;;1.47;1.47;;;3.60;99.90;3.30;103110.00;;;;5099270;28;20180;-66
2022/01/26 07:33:05;;;;;;;23.57;16.03;;;3.70;99.90;3.50;103106.00;;;;5107935;28;20233;-66
2022/01/26 07:35:31;;;;;;;21.50;13.93;;;3.70;99.90;3.30;103139.00;;;;5104007;28;20192;-66
2022/01/26 07:37:59;;;;;;;4.17;1.67;;;3.70;99.90;3.60;103148.00;;;;5113723;28;20580;-66
2022/01/26 07:40:25;;;;;;;12.60;9.23;;;3.80;99.90;4.00;103130.00;;;;5112240;28;20263;-66
2022/01/26 07:42:51;;;;;;;22.30;12.60;;;4.00;99.90;3.20;103111.00;;;;5100099;28;20208;-65
2022/01/26 07:45:19;;;;;;;7.67;1.67;;;3.70;99.90;3.10;103101.00;;;;5106756;28;20690;-66
2022/01/26 07:47:46;;;;;;;2.07;1.90;;;3.70;99.90;3.20;103110.00;;;;5107355;28;20636;-66
2022/01/26 07:50:15;;;;;;;41.20;14.43;;;3.60;99.90;3.30;103109.00;;;;5111952;28;20212;-66
2022/01/26 07:52:42;;;;;;;8.93;7.87;;;3.70;99.90;3.30;103118.00;;;;5083834;28;20289;-66
2022/01/26 07:55:13;;;;;;;16.40;12.27;;;3.70;99.90;3.20;103110.00;;;;5094904;28;20196;-66
2022/01/26 07:57:39;;;;;;;2.10;2.00;;;3.70;99.90;3.80;103092.00;;;;5109455;28;20183;-65
2022/01/26 08:00:14;;;;;;;13.37;9.00;;;3.90;99.90;4.10;103109.00;;;;5113553;28;20647;-65
2022/01/26 08:02:41;;;;;;;12.00;9.93;;;4.00;99.90;3.70;103128.00;;;;5112880;28;20548;-65
2022/01/26 08:05:14;;;;;;;14.77;8.00;;;4.00;99.90;3.70;103142.00;;;;5102877;28;20298;-66
2022/01/26 08:07:55;;;;;;;4.67;4.20;;;4.00;99.90;3.70;103116.00;;;;5110176;28;20201;-65
2022/01/26 08:10:21;;;;;;;23.67;12.37;;;4.00;99.90;4.00;103132.00;;;;5106361;28;20192;-66
2022/01/26 08:12:49;;;;;;;13.70;7.97;;;4.10;99.90;3.60;103127.00;;;;5111879;28;20260;-66
2022/01/26 08:15:39;;;;;;;4.47;4.17;;;4.00;99.90;4.00;103081.00;;;;5110181;28;20625;-66
2022/01/26 08:18:56;;;;;;;19.27;11.37;;;4.10;99.90;4.40;103125.00;;;;5113893;28;20190;-66
2022/01/26 08:21:21;;;;;;;21.83;10.47;;;4.40;99.90;4.00;103125.00;;;;5112367;28;20176;-66
2022/01/26 08:23:50;;;;;;;10.03;9.10;;;4.30;99.90;3.60;103104.00;;;;5100857;28;20181;-66
2022/01/26 08:26:24;;;;;;;9.43;7.50;;;4.10;99.90;3.30;103098.00;;;;5106478;28;20185;-65
2022/01/26 08:28:54;;;;;;;3.47;3.17;;;3.90;99.90;3.60;103117.00;;;;5101224;28;20246;-65
2022/01/26 08:31:20;;;;;;;0.30;0.30;;;4.00;99.90;4.10;103124.00;;;;5101004;28;20251;-66
2022/01/26 08:33:46;;;;;;;13.27;12.03;;;4.10;99.90;3.70;103125.00;;;;5106430;28;20282;-66
2022/01/26 08:36:12;;;;;;;16.27;10.33;;;4.10;99.90;3.40;103120.00;;;;5110550;28;20233;-66
2022/01/26 08:38:38;;;;;;;4.10;2.67;;;4.00;99.90;3.50;103119.00;;;;5098617;28;20184;-66
2022/01/26 08:41:04;;;;;;;5.23;2.57;;;4.00;99.90;3.40;103104.00;;;;5101505;28;20188;-66
2022/01/26 08:43:30;;;;;;;6.57;5.57;;;4.00;99.90;3.50;103099.00;;;;5104744;28;20752;-65
2022/01/26 08:45:55;;;;;;;5.97;4.90;;;3.90;99.90;3.60;103111.00;;;;5106840;28;20184;-66
2022/01/26 08:48:22;;;;;;;17.50;10.93;;;4.00;99.90;4.10;103121.00;;;;5110225;28;20176;-66
2022/01/26 08:50:48;;;;;;;9.97;6.47;;;4.10;99.90;3.50;103074.00;;;;5106085;28;20175;-66
2022/01/26 08:53:14;;;;;;;4.43;3.00;;;4.10;99.90;3.60;103130.00;;;;5101885;28;20232;-66
2022/01/26 08:55:39;;;;;;;4.50;3.73;;;4.00;99.90;3.30;103128.00;;;;5102529;28;20220;-65
2022/01/26 08:58:05;;;;;;;0.83;0.77;;;3.90;99.90;3.40;103128.00;;;;5108687;28;20702;-65
2022/01/26 09:00:35;;;;;;;0.97;0.97;;;3.90;99.90;3.80;103137.00;;;;5104124;28;20628;-65
2022/01/26 09:03:03;;;;;;;6.53;6.03;;;4.00;99.90;4.00;103111.00;;;;5107337;28;20185;-65
2022/01/26 09:05:29;;;;;;;12.13;6.87;;;4.20;99.90;3.80;103066.00;;;;5111045;28;20608;-65
2022/01/26 09:07:59;;;;;;;4.03;3.70;;;4.20;99.90;3.40;103116.00;;;;5095240;28;20201;-65
2022/01/26 09:10:28;;;;;;;4.77;2.93;;;4.10;99.90;3.60;103100.00;;;;5092569;28;20207;-64
2022/01/26 09:12:54;;;;;;;15.40;9.90;;;4.00;99.90;3.90;103124.00;;;;5097556;28;20258;-64
2022/01/26 09:15:26;;;;;;;18.87;9.70;;;4.10;99.90;3.60;103114.00;;;;5101100;28;20190;-64
2022/01/26 09:17:58;;;;;;;6.93;6.30;;;4.10;99.90;3.80;103114.00;;;;5105357;28;20186;-65
2022/01/26 09:20:24;;;;;;;10.30;5.13;;;4.10;99.90;3.60;103111.00;;;;5112886;28;20177;-64
2022/01/26 09:22:50;;;;;;;19.37;12.10;;;4.10;99.90;4.10;103124.00;;;;5112963;28;20545;-64
2022/01/26 09:25:16;;;;;;;5.47;4.97;;;4.20;99.90;4.50;103119.00;;;;5112902;28;20217;-65
2022/01/26 09:27:42;;;;;;;10.40;7.30;;;4.50;99.90;4.40;103119.00;;;;5097970;28;20182;-64
2022/01/26 09:30:10;;;;;;;14.97;8.63;;;4.60;99.90;3.70;103117.00;;;;5112743;28;20208;-64
2022/01/26 09:32:37;;;;;;;1.97;1.90;;;4.40;99.90;3.80;103084.00;;;;5102037;27;20296;-64
2022/01/26 09:35:06;;;;;;;3.77;3.40;;;4.40;99.90;3.90;103113.00;;;;5105123;28;20244;-64
2022/01/26 09:37:32;;;;;;;2.23;2.00;;;4.30;99.90;3.60;103116.00;;;;5111602;28;20177;-64
2022/01/26 09:39:58;;;;;;;11.30;6.97;;;4.20;99.90;3.60;103108.00;;;;5089994;28;20196;-64
2022/01/26 09:42:25;;;;;;;6.03;5.13;;;4.20;99.90;3.50;103099.00;;;;5097741;28;20595;-64
2022/01/26 09:44:50;;;;;;;1.00;1.00;;;4.00;99.90;3.80;103109.00;;;;5104731;28;20182;-64
2022/01/26 09:47:16;;;;;;;5.97;5.37;;;4.10;99.90;4.40;103111.00;;;;5096848;28;20179;-64
2022/01/26 09:49:43;;;;;;;1.40;1.30;;;4.40;99.90;3.50;103104.00;;;;5105220;28;20531;-64
2022/01/26 09:52:36;;;;;;;3.00;2.90;;;4.20;99.90;3.50;103109.00;;;;5096446;28;20210;-64
2022/01/26 09:55:03;;;;;;;2.70;2.60;;;4.10;99.90;3.90;103109.00;;;;5111278;28;20232;-64
2022/01/26 09:57:30;;;;;;;7.13;4.30;;;4.10;99.90;3.90;103092.00;;;;5111659;28;20697;-64
2022/01/26 10:00:56;;;;;;;2.80;2.60;;;4.20;99.90;3.90;103103.00;;;;5105720;28;20327;-64
2022/01/26 10:03:35;;;;;;;0.40;0.40;;;4.30;99.90;4.00;103101.00;;;;5110394;28;20235;-64
2022/01/26 10:06:03;;;;;;;10.90;8.13;;;4.30;99.90;4.70;103083.00;;;;5111464;28;20632;-64
2022/01/26 10:17:25;;;;;;;1.90;1.80;;;4.80;99.90;4.40;103097.00;;;;5052498;28;20648;-64
2022/01/26 10:19:56;;;;;;;1.27;0.87;;;4.50;99.90;5.30;103099.00;;;;5110850;28;20230;-64
2022/01/26 10:33:21;;;;;;;26.63;16.07;;;4.50;99.90;3.70;103069.00;;;;5065900;28;20569;-65
2022/01/26 10:35:47;;;;;;;9.23;8.23;;;4.30;99.90;3.60;103105.00;;;;5049351;28;20211;-64
2022/01/26 10:38:14;;;;;;;17.97;10.93;;;4.20;99.90;4.10;103110.00;;;;5031292;28;20182;-65
2022/01/26 10:40:40;;;;;;;9.13;6.07;;;4.30;99.90;3.80;103103.00;;;;5049290;28;20271;-65
2022/01/26 10:43:24;;;;;;;11.83;9.17;;;4.30;99.90;3.70;103093.00;;;;5031747;28;20190;-65
2022/01/26 10:46:35;;;;;;;4.00;3.53;;;4.20;99.90;4.20;103099.00;;;;5048280;28;20185;-63
2022/01/26 10:55:47;;;;;;;10.50;7.27;;;4.40;99.90;3.60;103099.00;;;;5047648;28;20210;-65
2022/01/26 10:58:21;;;;;;;18.63;7.43;;;4.40;99.90;3.60;103102.00;;;;5044000;28;20539;-68
2022/01/26 11:00:52;;;;;;;22.07;8.20;;;4.20;99.90;3.40;103097.00;;;;5054714;28;20212;-65
2022/01/26 11:03:23;;;;;;;8.97;6.13;;;4.10;99.90;4.30;103110.00;;;;5047360;28;20263;-65
2022/01/26 11:05:50;;;;;;;5.83;3.63;;;4.40;99.90;4.80;103095.00;;;;5047196;28;20591;-64
2022/01/26 11:08:20;;;;;;;18.40;12.03;;;4.80;99.90;4.30;103100.00;;;;5048938;28;20182;-63
2022/01/26 11:10:49;;;;;;;8.20;7.33;;;4.80;99.90;4.40;103112.00;;;;5046378;28;20221;-65
2022/01/26 11:13:34;;;;;;;6.60;4.03;;;4.70;99.90;4.50;103135.00;;;;5045600;28;20188;-65
2022/01/26 11:16:11;;;;;;;8.50;5.53;;;4.80;99.90;4.10;103134.00;;;;5068461;28;20600;-65
2022/01/26 11:18:58;;;;;;;8.07;5.30;;;4.60;99.90;3.80;103125.00;;;;5043438;28;20174;-65
2022/01/26 11:21:33;;;;;;;28.23;7.77;;;4.30;99.90;4.20;103131.00;;;;5040245;28;20543;-62
2022/01/26 11:24:11;;;;;;;0.50;0.50;;;4.60;99.90;4.20;103126.00;;;;5047542;28;20672;-62
2022/01/26 11:26:47;;;;;;;1.47;1.47;;;4.50;99.90;4.40;103114.00;;;;5036122;28;20715;-63
2022/01/26 11:29:23;;;;;;;0.93;0.93;;;4.60;99.90;4.30;103119.00;;;;5017700;28;20187;-63
2022/01/26 11:32:14;;;;;;;2.90;2.37;;;4.60;99.90;4.20;103113.00;;;;5045206;28;20229;-63
2022/01/26 11:34:52;;;;;;;7.80;6.17;;;4.60;99.90;4.40;103117.00;;;;5049080;28;20273;-62
2022/01/26 11:37:42;;;;;;;8.47;7.27;;;4.60;99.90;4.60;103107.00;;;;5058027;28;20650;-62
2022/01/26 11:46:11;;;;;;;0.60;0.60;;;4.60;99.90;4.90;103101.00;;;;5014983;28;20247;-63
2022/01/26 11:48:39;;;;;;;1.27;0.80;;;4.70;99.90;4.70;103055.00;;;;5017939;28;20181;-63
2022/01/26 11:51:07;;;;;;;2.07;1.90;;;4.90;99.90;5.40;103096.00;;;;5021725;28;20292;-63
2022/01/26 11:53:36;;;;;;;0.30;0.30;;;5.10;99.90;4.80;103085.00;;;;5029996;28;20201;-63
2022/01/26 11:56:13;;;;;;;1.10;1.10;;;5.00;99.90;4.90;103078.00;;;;5033298;28;20269;-63
2022/01/26 11:58:50;;;;;;;1.10;1.10;;;5.20;99.90;4.70;103075.00;;;;5034159;28;20524;-63
2022/01/26 12:01:27;;;;;;;7.33;5.37;;;5.10;99.90;4.70;103085.00;;;;5043893;28;20227;-63
2022/01/26 12:04:19;;;;;;;2.13;2.03;;;5.10;99.90;4.70;103062.00;;;;5021649;28;20188;-62
2022/01/26 12:06:59;;;;;;;0.43;0.43;;;5.10;99.90;5.00;103089.00;;;;5030632;28;20652;-62
2022/01/26 12:09:30;;;;;;;0.40;0.40;;;5.10;99.90;5.30;103086.00;;;;5030703;28;20188;-63
2022/01/26 12:12:05;;;;;;;2.70;2.50;;;5.30;99.90;5.50;103086.00;;;;5031475;28;20201;-63
2022/01/26 12:14:33;;;;;;;5.83;4.20;;;5.40;99.90;4.50;103040.00;;;;5034923;28;20182;-62
2022/01/26 12:17:05;;;;;;;3.83;3.53;;;5.20;99.90;4.40;103065.00;;;;5017481;28;20649;-62
2022/01/26 12:19:50;;;;;;;0.30;0.30;;;4.90;99.90;5.30;103072.00;;;;5027108;28;20214;-62
2022/01/26 12:36:23;;;;;;;3.60;3.30;;;4.90;99.90;4.70;103061.00;;;;5028429;28;20283;-63
2022/01/26 12:39:11;;;;;;;4.57;3.97;;;4.90;99.90;4.60;103049.00;;;;5031747;28;20195;-63
2022/01/26 12:41:45;;;;;;;2.40;2.30;;;5.00;99.90;4.90;103058.00;;;;5031862;28;20191;-62
2022/01/26 12:44:13;;;;;;;0.77;0.53;;;5.00;99.90;5.40;103058.00;;;;5032343;28;20252;-63
2022/01/26 12:46:41;;;;;;;3.60;3.10;;;5.20;99.90;5.50;103053.00;;;;5032624;28;20267;-62
2022/01/26 12:49:13;;;;;;;0.43;0.43;;;5.40;99.90;5.50;103049.00;;;;5032503;28;20217;-62
2022/01/26 12:51:50;;;;;;;2.47;2.37;;;5.40;99.90;5.50;103056.00;;;;5030097;28;20225;-63
2022/01/26 12:54:18;;;;;;;2.10;1.93;;;5.50;99.90;6.00;103056.00;;;;5023334;28;20196;-62
2022/01/26 12:56:44;;;;;;;6.33;5.70;;;5.70;99.90;5.10;103048.00;;;;5039776;28;20189;-63
2022/01/26 12:59:16;;;;;;;0.30;0.30;;;5.50;99.90;5.80;103056.00;;;;5033461;28;20601;-62
2022/01/26 13:01:45;;;;;;;0.93;0.93;;;5.50;99.90;4.40;103008.00;;;;5027264;28;20244;-62
2022/01/26 13:04:18;;;;;;;1.50;0.73;;;5.00;99.90;5.40;103071.00;;;;5031425;28;20184;-62
2022/01/26 13:06:52;;;;;;;5.00;3.90;;;5.20;99.90;4.50;103021.00;;;;5020494;28;20198;-62
2022/01/26 13:09:29;;;;;;;13.90;1.90;;;5.10;99.90;4.40;103048.00;;;;5013466;28;20189;-62
2022/01/26 13:12:03;;;;;;;10.27;8.67;;;4.90;99.90;4.60;103054.00;;;;5030905;28;20199;-62
2022/01/26 13:14:46;;;;;;;4.43;3.60;;;5.00;99.90;4.80;103057.00;;;;5032574;28;20248;-62
2022/01/26 13:28:32;;;;;;;4.30;4.00;;;5.00;99.90;4.80;103047.00;;;;5032594;28;20218;-64
2022/01/26 13:34:37;;;;;;;0.53;0.53;;;5.20;99.90;5.60;103047.00;;;;5032276;28;20211;-64
2022/01/26 13:46:13;;;;;;;2.20;2.10;;;5.70;99.90;5.80;103026.00;;;;5030144;28;20573;-63
2022/01/26 13:49:41;;;;;;;2.87;2.33;;;5.50;99.90;4.60;103016.00;;;;5031852;28;20200;-63
2022/01/26 13:59:47;;;;;;;10.60;3.87;;;5.10;99.90;4.40;103000.00;;;;5045603;28;20551;-62
2022/01/26 14:02:13;;;;;;;5.17;3.67;;;4.90;99.90;4.20;102997.00;;;;5031057;28;20236;-62
2022/01/26 14:04:40;;;;;;;1.90;1.43;;;4.80;99.90;4.80;103007.00;;;;5043199;28;20681;-62
2022/01/26 14:07:07;;;;;;;1.40;1.40;;;4.90;99.90;5.40;103012.00;;;;5030666;28;20188;-63
2022/01/26 14:09:33;;;;;;;3.53;1.63;;;5.20;99.90;5.60;102974.00;;;;5031643;28;20242;-64
2022/01/26 14:12:00;;;;;;;1.87;1.70;;;5.60;99.90;5.60;103001.00;;;;5029977;28;20209;-64
2022/01/26 14:14:36;;;;;;;0.30;0.30;;;5.50;99.90;5.20;102999.00;;;;5029667;28;20197;-63
2022/01/26 14:17:13;;;;;;;3.33;2.30;;;5.30;99.90;4.80;103003.00;;;;5012790;28;20209;-64